Time;durP1;ratioP1;P1;durP2;ratioP2;P2;SDS_P1;SDS_P2;PMS_P1;PMS_P2;Temp;Humidity;BMP_temperature;BMP_pressure;BME280_temperature;BME280_humidity;BME280_pressure;Samples;Min_cycle;Max_cycle;Signal;HPM_P1;HPM_P2
2022/05/18 00:01:00;;;;;;;;;;;;;;;10.91;100.00;98814.58;1759682;80;20168;-87
2022/05/18 00:03:28;;;;;;;;;;;;;;;10.89;100.00;98821.72;1760698;80;24764;-85
2022/05/18 00:05:54;;;;;;;;;;;;;;;10.84;100.00;98826.41;1754192;80;22093;-84
2022/05/18 00:08:19;;;;;;;;;;;;;;;10.85;100.00;98823.70;1765123;80;21040;-84
2022/05/18 00:10:46;;;;;;;;;;;;;;;10.90;100.00;98820.31;1759560;80;20763;-84
2022/05/18 00:13:12;;;;;;;;;;;;;;;10.98;100.00;98827.65;1758110;80;20482;-85
2022/05/18 00:15:39;;;;;;;;;;;;;;;11.05;100.00;98828.09;1760133;80;24810;-85
2022/05/18 00:18:06;;;;;;;;;;;;;;;10.99;100.00;98821.95;1762746;80;21936;-84
2022/05/18 00:20:33;;;;;;;;;;;;;;;10.92;100.00;98824.12;1764892;80;26026;-83
2022/05/18 00:23:02;;;;;;;;;;;;;;;10.89;100.00;98830.88;1762846;80;24427;-83
2022/05/18 00:25:30;;;;;;;;;;;;;;;10.99;100.00;98827.19;1760391;80;20521;-85
2022/05/18 00:27:56;;;;;;;;;;;;;;;11.24;100.00;98833.33;1760740;80;24821;-84
2022/05/18 00:30:23;;;;;;;;;;;;;;;11.43;100.00;98827.71;1762064;80;22050;-82
2022/05/18 00:32:49;;;;;;;;;;;;;;;11.42;100.00;98827.80;1756360;80;25946;-83
2022/05/18 00:35:15;;;;;;;;;;;;;;;11.50;100.00;98830.77;1760016;80;24563;-82
2022/05/18 00:37:41;;;;;;;;;;;;;;;11.55;100.00;98826.89;1764629;80;20233;-82
2022/05/18 00:40:09;;;;;;;;;;;;;;;11.40;100.00;98831.02;1757110;80;20198;-84
2022/05/18 00:42:35;;;;;;;;;;;;;;;11.19;100.00;98836.72;1762646;80;22785;-82
2022/05/18 00:45:03;;;;;;;;;;;;;;;11.01;100.00;98835.33;1757567;80;21026;-81
2022/05/18 00:47:32;;;;;;;;;;;;;;;10.85;100.00;98839.88;1765213;80;24648;-87
2022/05/18 00:50:09;;;;;;;;;;;;;;;10.65;100.00;98846.83;1766173;80;20326;-85
2022/05/18 00:52:37;;;;;;;;;;;;;;;10.48;100.00;98849.20;1763349;80;24821;-85
2022/05/18 00:55:03;;;;;;;;;;;;;;;10.37;100.00;98854.27;1759863;80;22879;-85
2022/05/18 00:57:35;;;;;;;;;;;;;;;10.31;100.00;98862.03;1762593;80;27016;-82
2022/05/18 01:00:03;;;;;;;;;;;;;;;10.25;100.00;98865.05;1763836;80;24606;-82
2022/05/18 01:02:31;;;;;;;;;;;;;;;10.16;100.00;98871.26;1762460;80;20367;-82
2022/05/18 01:04:59;;;;;;;;;;;;;;;10.03;100.00;98869.88;1764330;80;26029;-85
2022/05/18 01:07:28;;;;;;;;;;;;;;;9.93;100.00;98876.56;1705382;83;22210;-82
2022/05/18 01:09:54;;;;;;;;;;;;;;;9.82;100.00;98875.91;1706467;83;26091;-83
2022/05/18 01:12:20;;;;;;;;;;;;;;;9.77;100.00;98870.11;1702066;83;110453;-83
2022/05/18 01:14:52;;;;;;;;;;;;;;;9.83;100.00;98878.05;1692298;84;20170;-82
2022/05/18 01:17:20;;;;;;;;;;;;;;;9.94;100.00;98884.33;1690406;84;24925;-82
2022/05/18 01:19:47;;;;;;;;;;;;;;;10.21;100.00;98884.92;1727294;82;22712;-84
2022/05/18 01:22:32;;;;;;;;;;;;;;;10.43;100.00;98884.82;1720319;82;26697;-84
2022/05/18 01:25:09;;;;;;;;;;;;;;;10.62;100.00;98887.14;1724501;82;24644;-87
2022/05/18 01:27:41;;;;;;;;;;;;;;;10.74;100.00;98887.69;1725059;82;20295;-82
2022/05/18 01:30:07;;;;;;;;;;;;;;;10.82;100.00;98883.26;1728100;82;24756;-87
2022/05/18 01:32:51;;;;;;;;;;;;;;;10.87;100.00;98883.80;1726581;82;21975;-85
2022/05/18 01:35:26;;;;;;;;;;;;;;;10.93;100.00;98879.48;1701908;83;27064;-87
2022/05/18 01:38:01;;;;;;;;;;;;;;;10.95;100.00;98889.88;1731201;82;23888;-86
2022/05/18 01:40:36;;;;;;;;;;;;;;;10.78;100.00;98893.56;1723469;82;20265;-87
2022/05/18 01:43:12;;;;;;;;;;;;;;;10.59;100.00;98895.64;1724054;82;24806;-82
2022/05/18 01:45:38;;;;;;;;;;;;;;;10.53;100.00;98894.73;1719603;82;22106;-82
2022/05/18 01:48:10;;;;;;;;;;;;;;;10.60;100.00;98906.48;1722059;82;20972;-83
2022/05/18 01:50:41;;;;;;;;;;;;;;;10.45;100.00;98906.98;1729409;82;25186;-82
2022/05/18 01:53:10;;;;;;;;;;;;;;;10.39;100.00;98892.50;1722482;82;20170;-82
2022/05/18 01:55:38;;;;;;;;;;;;;;;10.44;100.00;98901.36;1766451;80;24827;-82
2022/05/18 01:58:04;;;;;;;;;;;;;;;10.44;100.00;98911.83;1763793;80;22154;-82
2022/05/18 02:00:31;;;;;;;;;;;;;;;10.52;100.00;98906.98;1761931;80;26179;-87
2022/05/18 02:02:57;;;;;;;;;;;;;;;10.33;100.00;98915.57;1765925;80;24446;-87
2022/05/18 02:05:23;;;;;;;;;;;;;;;10.21;100.00;98919.77;1765052;80;20171;-87
2022/05/18 02:07:50;;;;;;;;;;;;;;;10.03;100.00;98922.17;1760293;80;24715;-87
2022/05/18 02:10:16;;;;;;;;;;;;;;;10.11;100.00;98923.84;1759199;80;22052;-87
2022/05/18 02:12:42;;;;;;;;;;;;;;;10.24;100.00;98924.83;1764756;80;26006;-85
2022/05/18 02:15:08;;;;;;;;;;;;;;;10.35;100.00;98931.56;1762041;80;20912;-87
2022/05/18 02:17:35;;;;;;;;;;;;;;;10.45;100.00;98932.67;1765200;80;20451;-84
2022/05/18 02:20:01;;;;;;;;;;;;;;;10.51;100.00;98930.62;1763167;80;24195;-84
2022/05/18 02:22:27;;;;;;;;;;;;;;;10.49;100.00;98934.63;1765325;80;20840;-84
2022/05/18 02:24:54;;;;;;;;;;;;;;;10.48;100.00;98934.25;1757383;80;26759;-82
2022/05/18 02:27:19;;;;;;;;;;;;;;;10.52;100.00;98941.46;1761964;80;24690;-84
2022/05/18 02:29:45;;;;;;;;;;;;;;;10.40;100.00;98951.74;1756060;80;107365;-84
2022/05/18 02:32:12;;;;;;;;;;;;;;;10.33;100.00;98953.04;1761946;80;24837;-83
2022/05/18 02:34:38;;;;;;;;;;;;;;;10.16;100.00;98966.28;1753912;80;21938;-82
2022/05/18 02:37:04;;;;;;;;;;;;;;;9.82;100.00;98953.51;1752072;80;21107;-86
2022/05/18 02:39:30;;;;;;;;;;;;;;;9.61;100.00;98960.80;1765910;80;24418;-86
2022/05/18 02:41:56;;;;;;;;;;;;;;;9.39;100.00;98969.02;1763013;80;20338;-87
2022/05/18 02:44:29;;;;;;;;;;;;;;;9.24;100.00;98973.80;1752617;80;25487;-82
2022/05/18 02:46:56;;;;;;;;;;;;;;;9.11;100.00;98957.15;1760772;80;22123;-82
2022/05/18 02:49:23;;;;;;;;;;;;;;;9.10;100.00;98975.89;1766297;80;26753;-84
2022/05/18 02:51:51;;;;;;;;;;;;;;;8.91;100.00;98971.28;1764550;80;24383;-84
2022/05/18 02:57:03;;;;;;;;;;;;;;;8.75;100.00;98988.69;1740003;81;203771;-84
2022/05/18 02:59:29;;;;;;;;;;;;;;;8.62;100.00;98993.70;1747459;81;22056;-87
2022/05/18 03:01:57;;;;;;;;;;;;;;;8.55;100.00;98994.98;1722350;81;21156;-83
2022/05/18 03:04:23;;;;;;;;;;;;;;;8.52;100.00;98995.58;1735349;81;24384;-87
2022/05/18 03:06:49;;;;;;;;;;;;;;;8.45;100.00;98997.69;1730051;81;20820;-83
2022/05/18 03:09:16;;;;;;;;;;;;;;;8.39;100.00;99004.07;1737385;81;24825;-84
2022/05/18 03:11:50;;;;;;;;;;;;;;;8.37;100.00;99005.91;1741053;81;22553;-83
2022/05/18 03:14:16;;;;;;;;;;;;;;;8.35;100.00;99014.25;1737689;80;26054;-83
2022/05/18 03:16:43;;;;;;;;;;;;;;;8.35;100.00;99021.23;1743503;81;23809;-86
2022/05/18 03:19:14;;;;;;;;;;;;;;;8.32;100.00;99030.08;1739199;81;20241;-88
2022/05/18 03:24:34;;;;;;;;;;;;;;;8.25;100.00;99036.48;1733654;80;22201;-85
2022/05/18 03:26:59;;;;;;;;;;;;;;;8.21;100.00;99038.87;1737508;80;20651;-85
2022/05/18 03:29:25;;;;;;;;;;;;;;;8.13;100.00;99030.58;1730432;80;20284;-87
2022/05/18 03:31:51;;;;;;;;;;;;;;;8.17;100.00;99038.65;1742874;80;20857;-83
2022/05/18 03:34:27;;;;;;;;;;;;;;;8.18;100.00;99050.73;1725981;81;24822;-83
2022/05/18 03:36:59;;;;;;;;;;;;;;;8.21;100.00;99058.88;1690553;82;21991;-84
2022/05/18 03:39:26;;;;;;;;;;;;;;;8.19;100.00;99059.41;1688882;82;26169;-85
2022/05/18 03:41:53;;;;;;;;;;;;;;;8.23;100.00;99059.66;1668127;83;24578;-85
2022/05/18 03:44:20;;;;;;;;;;;;;;;8.26;100.00;99067.31;1729416;80;20255;-85
2022/05/18 03:46:47;;;;;;;;;;;;;;;8.29;100.00;99079.72;1732072;80;24832;-85
2022/05/18 03:49:13;;;;;;;;;;;;;;;8.30;100.00;99082.75;1727878;80;22184;-87
2022/05/18 03:51:40;;;;;;;;;;;;;;;8.33;100.00;99089.59;1726613;80;21004;-85
2022/05/18 03:54:06;;;;;;;;;;;;;;;8.31;99.84;99087.52;1730914;80;24548;-83
2022/05/18 03:56:40;;;;;;;;;;;;;;;8.31;99.54;99097.94;1729776;80;20185;-87
2022/05/18 03:59:12;;;;;;;;;;;;;;;8.33;99.45;99092.20;1712640;82;25127;-87
2022/05/18 04:01:36;;;;;;;;;;;;;;;8.36;99.37;99099.86;1731596;80;22029;-87
2022/05/18 04:04:02;;;;;;;;;;;;;;;8.40;99.23;99106.14;1739550;80;25994;-87
2022/05/18 04:06:28;;;;;;;;;;;;;;;8.46;99.14;99102.37;1736414;80;24422;-87
2022/05/18 04:08:54;;;;;;;;;;;;;;;8.53;99.10;99108.98;1730749;80;20778;-85
2022/05/18 04:11:20;;;;;;;;;;;;;;;8.65;99.12;99114.05;1730995;80;24731;-82
2022/05/18 04:13:50;;;;;;;;;;;;;;;8.81;99.20;99114.94;1734122;80;22004;-85
2022/05/18 04:16:17;;;;;;;;;;;;;;;9.02;99.43;99115.13;1750440;80;26015;-83
2022/05/18 04:18:43;;;;;;;;;;;;;;;9.24;99.44;99118.74;1735650;80;24438;-82
2022/05/18 04:21:10;;;;;;;;;;;;;;;9.38;99.16;99121.45;1738611;80;20361;-83
2022/05/18 04:23:41;;;;;;;;;;;;;;;9.45;98.39;99120.20;1733546;80;24807;-84
2022/05/18 04:26:07;;;;;;;;;;;;;;;9.48;97.76;99127.04;1727998;80;21998;-84
2022/05/18 04:28:36;;;;;;;;;;;;;;;9.45;96.77;99128.03;1733049;80;26317;-88
2022/05/18 04:31:03;;;;;;;;;;;;;;;9.45;96.19;99131.95;1740821;80;24450;-83
2022/05/18 04:33:29;;;;;;;;;;;;;;;9.41;95.49;99131.75;1734807;80;20437;-83
2022/05/18 04:35:55;;;;;;;;;;;;;;;9.44;95.11;99130.26;1733616;80;24820;-83
2022/05/18 04:38:22;;;;;;;;;;;;;;;9.47;94.77;99135.34;1736443;80;22001;-85
2022/05/18 04:40:48;;;;;;;;;;;;;;;9.52;94.55;99142.46;1732106;80;25993;-83
2022/05/18 04:43:20;;;;;;;;;;;;;;;9.47;93.80;99139.25;1729841;80;24544;-83
2022/05/18 04:45:51;;;;;;;;;;;;;;;9.49;93.21;99152.25;1737097;80;20194;-83
2022/05/18 04:48:30;;;;;;;;;;;;;;;9.55;93.04;99147.50;1728664;80;24758;-88
2022/05/18 04:50:54;;;;;;;;;;;;;;;9.62;92.87;99150.17;1748910;80;22834;-87
2022/05/18 04:53:20;;;;;;;;;;;;;;;9.65;92.45;99155.71;1731363;80;21051;-88
2022/05/18 04:55:52;;;;;;;;;;;;;;;9.62;91.80;99156.70;1733714;80;24513;-88
2022/05/18 04:58:22;;;;;;;;;;;;;;;9.56;90.94;99157.03;1748251;80;20177;-88
2022/05/18 05:00:50;;;;;;;;;;;;;;;9.56;90.37;99162.27;1747812;80;24749;-88
2022/05/18 05:03:18;;;;;;;;;;;;;;;9.54;89.63;99165.44;1729330;80;22178;-85
2022/05/18 05:05:46;;;;;;;;;;;;;;;9.57;89.07;99173.10;1734199;80;25993;-83
2022/05/18 05:08:12;;;;;;;;;;;;;;;9.63;88.77;99170.16;1732296;80;24546;-87
2022/05/18 05:10:38;;;;;;;;;;;;;;;9.70;88.49;99173.75;1751548;80;20243;-87
2022/05/18 05:13:04;;;;;;;;;;;;;;;9.75;87.99;99182.19;1737113;80;24729;-82
2022/05/18 05:15:31;;;;;;;;;;;;;;;9.78;87.46;99188.08;1710091;80;20218;-83
2022/05/18 05:17:57;;;;;;;;;;;;;;;9.89;87.34;99187.03;1738754;80;20980;-83
2022/05/18 05:20:23;;;;;;;;;;;;;;;9.97;86.91;99187.46;1750441;80;24472;-85
2022/05/18 05:22:49;;;;;;;;;;;;;;;10.11;86.86;99192.37;1740288;80;20197;-85
2022/05/18 05:25:15;;;;;;;;;;;;;;;10.18;86.49;99197.68;1710561;83;20421;-85
2022/05/18 05:27:42;;;;;;;;;;;;;;;10.21;86.02;99202.73;1713916;83;21930;-88
2022/05/18 05:30:13;;;;;;;;;;;;;;;10.21;85.51;99204.88;1712063;83;26073;-88
2022/05/18 05:32:39;;;;;;;;;;;;;;;10.20;84.77;99213.65;1710934;83;25181;-83
2022/05/18 05:35:08;;;;;;;;;;;;;;;10.21;84.19;99211.42;1709595;83;20539;-83
2022/05/18 05:37:34;;;;;;;;;;;;;;;10.27;83.91;99218.92;1712494;83;25532;-87
2022/05/18 05:39:59;;;;;;;;;;;;;;;10.29;83.38;99215.77;1708812;83;20790;-84
2022/05/18 05:42:25;;;;;;;;;;;;;;;10.34;83.05;99224.66;1709354;83;21027;-83
2022/05/18 05:44:52;;;;;;;;;;;;;;;10.42;82.98;99219.83;1709067;83;24539;-83
2022/05/18 05:47:18;;;;;;;;;;;;;;;10.52;82.91;99221.48;1709009;83;20186;-83
2022/05/18 05:49:44;;;;;;;;;;;;;;;10.54;82.55;99227.45;1706411;83;20738;-83
2022/05/18 05:52:11;;;;;;;;;;;;;;;10.54;81.91;99230.91;1710289;83;22129;-82
2022/05/18 05:54:37;;;;;;;;;;;;;;;10.52;81.25;99236.72;1708149;83;25949;-83
2022/05/18 05:57:04;;;;;;;;;;;;;;;10.58;81.04;99246.00;1708040;83;20316;-88
2022/05/18 05:59:36;;;;;;;;;;;;;;;10.58;80.63;99244.69;1709527;83;20158;-88
2022/05/18 06:02:03;;;;;;;;;;;;;;;10.58;80.30;99245.53;1709406;83;24760;-88
2022/05/18 06:04:37;;;;;;;;;;;;;;;10.56;79.59;99250.47;1709136;83;21929;-88
2022/05/18 06:07:06;;;;;;;;;;;;;;;10.61;79.50;99246.66;1709510;83;26091;-88
2022/05/18 06:09:32;;;;;;;;;;;;;;;10.67;79.32;99257.24;1709604;83;24444;-85
2022/05/18 06:11:59;;;;;;;;;;;;;;;10.73;79.25;99252.51;1710024;83;20219;-85
2022/05/18 06:14:25;;;;;;;;;;;;;;;10.72;78.77;99256.05;1711286;83;24919;-85
2022/05/18 06:17:00;;;;;;;;;;;;;;;10.76;78.40;99259.33;1709640;83;20326;-88
2022/05/18 06:19:26;;;;;;;;;;;;;;;10.78;78.07;99258.78;1710275;83;25962;-85
2022/05/18 06:21:52;;;;;;;;;;;;;;;10.82;77.72;99270.76;1709594;83;24414;-84
2022/05/18 06:24:19;;;;;;;;;;;;;;;10.81;76.97;99262.06;1726866;80;20397;-83
2022/05/18 06:26:58;;;;;;;;;;;;;;;10.85;76.55;99270.60;1725403;80;24784;-83
2022/05/18 06:29:24;;;;;;;;;;;;;;;10.93;76.30;99270.14;1735494;80;21517;-85
2022/05/18 06:31:52;;;;;;;;;;;;;;;10.96;75.89;99276.06;1735778;80;25990;-87
2022/05/18 06:34:21;;;;;;;;;;;;;;;10.99;75.51;99279.80;1751915;80;24559;-84
2022/05/18 06:36:49;;;;;;;;;;;;;;;11.02;75.07;99280.92;1739252;80;20479;-85
2022/05/18 06:39:18;;;;;;;;;;;;;;;11.04;74.47;99281.69;1726096;80;24892;-88
2022/05/18 06:41:47;;;;;;;;;;;;;;;11.04;73.81;99282.99;1731169;80;22839;-83
2022/05/18 06:44:13;;;;;;;;;;;;;;;11.11;73.39;99293.50;1673528;84;26146;-85
2022/05/18 06:46:39;;;;;;;;;;;;;;;11.17;73.01;99302.31;1712150;83;24601;-85
2022/05/18 06:49:09;;;;;;;;;;;;;;;11.15;72.11;99294.16;1713311;83;20146;-85
2022/05/18 06:51:37;;;;;;;;;;;;;;;11.22;71.78;99306.82;1714094;83;24785;-88
2022/05/18 06:54:03;;;;;;;;;;;;;;;11.23;71.13;99309.83;1713768;83;21995;-88
2022/05/18 06:56:31;;;;;;;;;;;;;;;11.27;70.56;99314.41;1740008;80;26079;-87
2022/05/18 06:58:57;;;;;;;;;;;;;;;11.29;70.09;99318.61;1701279;82;24580;-84
2022/05/18 07:01:28;;;;;;;;;;;;;;;11.41;70.01;99322.28;1734845;80;20229;-83
2022/05/18 07:03:54;;;;;;;;;;;;;;;11.49;69.57;99332.33;1728362;80;24747;-83
2022/05/18 07:06:26;;;;;;;;;;;;;;;11.49;68.85;99337.11;1744245;80;21978;-82
2022/05/18 07:08:54;;;;;;;;;;;;;;;11.47;68.06;99339.43;1738150;80;26074;-87
2022/05/18 07:11:23;;;;;;;;;;;;;;;11.47;67.22;99344.20;1704504;82;24111;-87
2022/05/18 07:13:51;;;;;;;;;;;;;;;11.47;66.39;99337.66;1735743;80;20613;-83
2022/05/18 07:16:18;;;;;;;;;;;;;;;11.55;66.07;99345.08;1734982;80;24850;-83
2022/05/18 07:18:51;;;;;;;;;;;;;;;11.66;65.93;99341.35;1738882;80;22173;-83
2022/05/18 07:21:17;;;;;;;;;;;;;;;11.73;65.65;99336.13;1734141;80;26003;-83
2022/05/18 07:23:43;;;;;;;;;;;;;;;11.88;65.70;99346.19;1726512;80;24417;-84
2022/05/18 07:26:10;;;;;;;;;;;;;;;12.00;65.60;99346.26;1683081;81;20281;-85
2022/05/18 07:28:36;;;;;;;;;;;;;;;12.08;65.32;99350.58;1714183;81;24809;-85
2022/05/18 07:31:02;;;;;;;;;;;;;;;12.06;64.39;99349.82;1712370;81;21999;-84
2022/05/18 07:33:28;;;;;;;;;;;;;;;12.01;63.20;99351.04;1721977;81;26030;-84
2022/05/18 07:35:54;;;;;;;;;;;;;;;12.06;62.56;99354.22;1719483;81;24304;-84
2022/05/18 07:38:22;;;;;;;;;;;;;;;12.15;62.24;99354.53;1710450;81;20198;-83
2022/05/18 07:40:49;;;;;;;;;;;;;;;12.18;61.52;99363.98;1712470;80;25389;-85
2022/05/18 07:43:17;;;;;;;;;;;;;;;12.22;60.91;99359.40;1710839;81;22062;-83
2022/05/18 07:45:43;;;;;;;;;;;;;;;12.28;60.56;99358.99;1671560;83;26108;-83
2022/05/18 07:48:11;;;;;;;;;;;;;;;12.35;60.06;99369.50;1648040;82;20243;-84
2022/05/18 07:50:41;;;;;;;;;;;;;;;12.42;59.49;99366.88;1703889;82;20282;-84
2022/05/18 07:53:05;;;;;;;;;;;;;;;12.52;59.12;99364.04;1701216;82;25250;-85
2022/05/18 07:55:36;;;;;;;;;;;;;;;12.62;58.88;99371.70;1707407;82;22038;-88
2022/05/18 07:58:04;;;;;;;;;;;;;;;12.68;58.55;99371.32;1705097;82;26002;-88
2022/05/18 08:00:35;;;;;;;;;;;;;;;12.67;57.88;99370.94;1706201;82;25405;-88
2022/05/18 08:03:02;;;;;;;;;;;;;;;12.73;57.55;99373.19;1704306;82;20244;-85
2022/05/18 08:05:30;;;;;;;;;;;;;;;12.75;56.94;99377.03;1700587;82;24770;-86
2022/05/18 08:07:56;;;;;;;;;;;;;;;12.76;56.40;99382.20;1686977;83;21967;-86
2022/05/18 08:15:54;;;;;;;;;;;;;;;12.96;55.76;99381.76;1701045;82;20327;-83
2022/05/18 08:18:20;;;;;;;;;;;;;;;12.97;55.37;99379.98;1635794;85;24839;-83
2022/05/18 08:20:48;;;;;;;;;;;;;;;13.08;55.40;99380.59;1685010;84;21986;-86
2022/05/18 08:23:27;;;;;;;;;;;;;;;13.19;55.32;99384.72;1671213;83;26231;-84
2022/05/18 08:25:59;;;;;;;;;;;;;;;13.17;54.83;99384.81;1684560;84;24525;-88
2022/05/18 08:28:26;;;;;;;;;;;;;;;13.22;54.57;99390.61;1675513;84;21052;-83
2022/05/18 08:30:54;;;;;;;;;;;;;;;13.26;54.27;99386.83;1686008;83;24848;-83
2022/05/18 08:33:20;;;;;;;;;;;;;;;13.34;54.27;99389.80;1673472;84;22124;-85
2022/05/18 08:35:47;;;;;;;;;;;;;;;13.40;54.16;99389.41;1675965;84;21215;-85
2022/05/18 08:38:14;;;;;;;;;;;;;;;13.49;54.10;99386.63;1687174;84;24502;-84
2022/05/18 08:40:45;;;;;;;;;;;;;;;13.48;53.67;99387.56;1714536;83;20244;-82
2022/05/18 08:43:13;;;;;;;;;;;;;;;13.61;53.67;99391.07;1735355;80;24829;-83
2022/05/18 08:45:42;;;;;;;;;;;;;;;13.71;53.67;99386.88;1736168;80;22091;-88
2022/05/18 08:48:26;;;;;;;;;;;;;;;13.76;53.47;99391.82;1733167;80;26004;-85
2022/05/18 08:50:52;;;;;;;;;;;;;;;13.86;53.47;99389.41;1731675;80;24499;-86
2022/05/18 08:53:38;;;;;;;;;;;;;;;13.98;53.38;99392.52;1731615;80;20577;-84
2022/05/18 08:56:08;;;;;;;;;;;;;;;13.98;52.90;99389.89;1720897;82;25495;-85
2022/05/18 08:58:49;;;;;;;;;;;;;;;14.05;52.74;99389.84;1704441;82;22115;-88
2022/05/18 09:01:29;;;;;;;;;;;;;;;14.14;52.40;99385.25;1703785;83;26264;-88
2022/05/18 09:04:01;;;;;;;;;;;;;;;14.18;51.95;99382.80;1701895;83;24572;-88
2022/05/18 09:06:28;;;;;;;;;;;;;;;14.24;51.52;99388.92;1707246;83;20200;-83
2022/05/18 09:11:45;;;;;;;;;;;;;;;14.19;50.45;99386.62;1730639;80;22030;-83
2022/05/18 09:14:13;;;;;;;;;;;;;;;14.17;50.04;99393.80;1728805;80;25803;-83
2022/05/18 09:16:41;;;;;;;;;;;;;;;14.15;49.68;99386.47;1715151;82;24517;-85
2022/05/18 09:19:18;;;;;;;;;;;;;;;14.15;49.40;99390.89;1691992;82;20264;-85
2022/05/18 09:22:03;;;;;;;;;;;;;;;14.17;49.09;99386.38;1656649;84;25345;-83
2022/05/18 09:24:34;;;;;;;;;;;;;;;14.30;49.09;99388.50;1667540;83;21901;-88
2022/05/18 09:27:04;;;;;;;;;;;;;;;14.35;48.72;99398.23;1691344;81;28483;-88
2022/05/18 09:29:41;;;;;;;;;;;;;;;14.32;48.37;99390.56;1677970;84;24438;-88
2022/05/18 09:32:13;;;;;;;;;;;;;;;14.36;48.19;99388.08;1698149;82;20342;-88
2022/05/18 09:34:44;;;;;;;;;;;;;;;14.46;48.02;99394.88;1683434;82;25641;-85
2022/05/18 09:37:12;;;;;;;;;;;;;;;14.62;48.15;99395.48;1682693;82;21955;-85
2022/05/18 09:39:40;;;;;;;;;;;;;;;14.71;48.00;99391.37;1686986;82;26809;-84
2022/05/18 09:42:08;;;;;;;;;;;;;;;14.68;47.70;99383.66;1670865;82;24491;-85
2022/05/18 09:44:43;;;;;;;;;;;;;;;14.75;47.59;99387.55;1678061;84;20252;-88
2022/05/18 09:47:22;;;;;;;;;;;;;;;14.74;47.12;99385.87;1686663;82;25046;-89
2022/05/18 09:49:50;;;;;;;;;;;;;;;14.70;46.52;99385.73;1689098;82;22285;-88
2022/05/18 09:52:21;;;;;;;;;;;;;;;14.71;46.27;99391.37;1679953;84;26726;-88
2022/05/18 09:54:47;;;;;;;;;;;;;;;14.80;46.28;99387.59;1680759;82;24445;-85
2022/05/18 09:57:15;;;;;;;;;;;;;;;14.81;45.81;99391.07;1693103;82;20215;-85
2022/05/18 09:59:49;;;;;;;;;;;;;;;14.89;45.54;99388.74;1693995;82;24903;-85
2022/05/18 10:07:48;;;;;;;;;;;;;;;15.14;45.30;99390.42;1655222;83;24542;-84
2022/05/18 10:10:21;;;;;;;;;;;;;;;15.22;45.11;99393.36;1687616;82;20235;-83
2022/05/18 10:12:49;;;;;;;;;;;;;;;15.25;44.85;99396.59;1685481;82;24917;-84
2022/05/18 10:15:26;;;;;;;;;;;;;;;15.26;44.53;99383.78;1700742;82;21957;-85
2022/05/18 10:17:54;;;;;;;;;;;;;;;15.27;44.19;99390.74;1686668;82;26328;-83
2022/05/18 10:20:28;;;;;;;;;;;;;;;15.33;44.10;99382.34;1680905;84;24404;-88
2022/05/18 10:22:55;;;;;;;;;;;;;;;15.35;43.80;99386.20;1681258;83;20647;-86
2022/05/18 10:25:23;;;;;;;;;;;;;;;15.35;43.56;99384.88;1675424;84;24754;-84
2022/05/18 10:27:50;;;;;;;;;;;;;;;15.27;43.00;99383.30;1712069;83;22126;-84
2022/05/18 10:30:19;;;;;;;;;;;;;;;15.19;42.49;99385.65;1707754;83;26052;-88
2022/05/18 10:32:53;;;;;;;;;;;;;;;15.19;42.32;99375.10;1710680;83;25275;-83
2022/05/18 10:35:41;;;;;;;;;;;;;;;15.24;42.19;99375.13;1711457;83;20356;-83
2022/05/18 10:38:18;;;;;;;;;;;;;;;15.27;41.99;99376.23;1705457;83;24681;-89
2022/05/18 10:40:45;;;;;;;;;;;;;;;15.36;41.89;99371.59;1710362;83;21985;-85
2022/05/18 10:43:19;;;;;;;;;;;;;;;15.43;41.62;99371.98;1710315;83;26286;-84
2022/05/18 10:45:47;;;;;;;;;;;;;;;15.42;41.25;99372.92;1708190;83;24529;-84
2022/05/18 10:48:14;;;;;;;;;;;;;;;15.39;40.97;99370.03;1710419;83;20185;-83
2022/05/18 10:50:41;;;;;;;;;;;;;;;15.40;40.71;99373.03;1710225;83;24822;-83
2022/05/18 10:53:16;;;;;;;;;;;;;;;15.46;40.51;99375.69;1710361;83;21998;-88
2022/05/18 10:56:03;;;;;;;;;;;;;;;15.50;40.29;99365.27;1709514;83;26005;-88
2022/05/18 10:58:48;;;;;;;;;;;;;;;15.62;40.31;99360.89;1712237;83;25416;-84
2022/05/18 11:01:28;;;;;;;;;;;;;;;15.84;40.42;99361.79;1710711;83;20305;-85
2022/05/18 11:03:56;;;;;;;;;;;;;;;15.86;40.07;99351.97;1707430;83;24931;-88
2022/05/18 11:06:30;;;;;;;;;;;;;;;15.84;39.68;99356.51;1709193;83;24054;-84
2022/05/18 11:08:57;;;;;;;;;;;;;;;15.85;39.42;99352.08;1708171;83;26056;-88
2022/05/18 11:11:43;;;;;;;;;;;;;;;15.96;39.45;99350.77;1714511;83;24524;-88
2022/05/18 11:14:11;;;;;;;;;;;;;;;16.03;39.39;99351.98;1709975;83;20246;-83
2022/05/18 11:16:45;;;;;;;;;;;;;;;16.00;38.97;99346.92;1712674;83;25495;-88
2022/05/18 11:19:36;;;;;;;;;;;;;;;15.94;38.71;99349.19;1711395;83;21914;-83
2022/05/18 11:22:01;;;;;;;;;;;;;;;15.97;38.64;99341.90;1708823;83;26181;-83
2022/05/18 11:24:31;;;;;;;;;;;;;;;16.10;38.69;99343.09;1712162;83;24524;-83
2022/05/18 11:27:17;;;;;;;;;;;;;;;16.20;38.59;99350.17;1685042;82;20183;-84
2022/05/18 11:29:54;;;;;;;;;;;;;;;16.17;38.30;99345.14;1713122;83;25612;-88
2022/05/18 11:32:39;;;;;;;;;;;;;;;16.19;38.18;99345.03;1708940;83;21942;-84
2022/05/18 11:35:11;;;;;;;;;;;;;;;16.35;38.27;99342.02;1708437;83;26064;-83
2022/05/18 11:37:56;;;;;;;;;;;;;;;16.47;38.24;99340.58;1660390;86;24507;-85
2022/05/18 11:40:31;;;;;;;;;;;;;;;16.57;38.10;99342.00;1655037;85;20248;-85
2022/05/18 11:43:25;;;;;;;;;;;;;;;16.56;37.90;99331.91;1657029;84;24761;-89
2022/05/18 11:45:55;;;;;;;;;;;;;;;16.61;37.69;99337.69;1652944;85;22001;-88
2022/05/18 11:48:32;;;;;;;;;;;;;;;16.54;37.35;99339.58;1657211;85;26603;-88
2022/05/18 11:51:00;;;;;;;;;;;;;;;16.58;37.36;99341.84;1654750;86;24518;-84
2022/05/18 11:53:38;;;;;;;;;;;;;;;16.62;37.17;99333.25;1676498;84;20252;-86
2022/05/18 11:56:10;;;;;;;;;;;;;;;16.78;37.34;99337.66;1658989;85;25436;-88
2022/05/18 11:59:28;;;;;;;;;;;;;;;16.90;37.23;99331.37;1700495;83;21935;-84
2022/05/18 12:01:40;;;;;;;;;;;;;;;16.89;36.82;99333.66;1709835;83;26094;-85
2022/05/18 12:04:09;;;;;;;;;;;;;;;16.98;36.83;99334.22;1708158;83;23864;-84
2022/05/18 12:06:39;;;;;;;;;;;;;;;17.09;36.68;99332.86;1709379;83;20367;-83
2022/05/18 12:09:13;;;;;;;;;;;;;;;17.15;36.51;99338.13;1710254;83;24737;-84
2022/05/18 12:11:41;;;;;;;;;;;;;;;17.19;36.47;99334.73;1710567;83;22212;-89
2022/05/18 12:14:17;;;;;;;;;;;;;;;17.27;36.47;99333.63;1710903;83;26757;-84
2022/05/18 12:17:05;;;;;;;;;;;;;;;17.31;36.28;99325.79;1706662;83;24633;-85
2022/05/18 12:19:42;;;;;;;;;;;;;;;17.32;36.17;99330.97;1712974;83;20312;-88
2022/05/18 12:22:15;;;;;;;;;;;;;;;17.34;35.95;99330.84;1715049;83;24728;-84
2022/05/18 12:24:45;;;;;;;;;;;;;;;17.31;35.68;99325.31;1708197;83;22565;-87
2022/05/18 12:27:13;;;;;;;;;;;;;;;17.26;35.30;99324.85;1732795;80;26474;-86
2022/05/18 12:29:41;;;;;;;;;;;;;;;17.31;35.35;99323.14;1726008;80;25008;-89
2022/05/18 12:32:08;;;;;;;;;;;;;;;17.33;35.15;99319.90;1747402;80;20617;-85
2022/05/18 12:34:36;;;;;;;;;;;;;;;17.25;35.01;99315.23;1728251;80;24823;-85
2022/05/18 12:37:03;;;;;;;;;;;;;;;17.37;35.13;99323.95;1739270;80;22084;-88
2022/05/18 12:39:31;;;;;;;;;;;;;;;17.46;35.08;99314.76;1745450;80;26158;-89
2022/05/18 12:41:59;;;;;;;;;;;;;;;17.47;34.89;99319.09;1733237;80;24435;-89
2022/05/18 12:44:27;;;;;;;;;;;;;;;17.47;34.80;99316.45;1734315;80;20217;-88
2022/05/18 12:46:55;;;;;;;;;;;;;;;17.58;34.91;99316.86;1723267;80;25120;-84
2022/05/18 12:49:32;;;;;;;;;;;;;;;17.74;35.01;99316.42;1738204;80;22117;-89
2022/05/18 12:52:06;;;;;;;;;;;;;;;17.80;34.99;99310.61;1736177;80;25490;-89
2022/05/18 12:54:34;;;;;;;;;;;;;;;17.76;34.68;99306.08;1715035;80;24551;-85
2022/05/18 12:57:14;;;;;;;;;;;;;;;17.73;34.54;99313.45;1728015;80;20221;-83
2022/05/18 12:59:49;;;;;;;;;;;;;;;17.67;34.24;99313.97;1739490;80;24737;-84
2022/05/18 13:02:34;;;;;;;;;;;;;;;17.58;34.01;99310.24;1734202;80;22019;-83
2022/05/18 13:05:04;;;;;;;;;;;;;;;17.51;33.76;99312.56;1727204;80;26054;-88
2022/05/18 13:07:31;;;;;;;;;;;;;;;17.54;33.86;99305.70;1705055;83;25279;-85
2022/05/18 13:10:05;;;;;;;;;;;;;;;17.65;33.90;99311.45;1721210;82;20216;-84
2022/05/18 13:12:34;;;;;;;;;;;;;;;17.73;33.82;99295.73;1733775;80;24799;-85
2022/05/18 13:15:04;;;;;;;;;;;;;;;17.96;34.13;99302.55;1731159;80;22062;-84
2022/05/18 13:17:47;;;;;;;;;;;;;;;18.18;34.26;99292.73;1742790;80;26083;-84